Terminal Aerodrome Forecast
Issued by NWS Louisville, KY

Home | Current Version | Previous Version | Text Only | Print | Product List | Glossary On
Versions: 1 2 3 4 5 6 7 8 9 10 11 12 13 14 15 16 17 18 19
000
FTUS43 KLMK 131700
TAFLEX
TAF
KLEX 131733Z 1318/1418 36009KT P6SM BKN025
     FM131900 01008KT P6SM SCT040
     FM140100 VRB03KT P6SM SKC
     FM141400 VRB04KT P6SM SCT040=

USA.gov is the U.S. government's official web portal to all federal, state and local government web resources and services.